Adrian Maersk — OXLD2 — position and weather

sailwx.info

Track history (hours):
 
Tides and Currents Weather Stations Pressure Air Temp Water Temp Dewpoint Dewpoint Depression Visibility Wind Speed Wind Dir Waves Ship Positions

Adrian Maersk

Last reported at 2017-Oct-18 05:05 UTC. Time now 2017-Oct-22 17:22 UTC.
Position N 31°26' E 032°22'.

Length 352 m; draft 13.2 m.

Type: Ship (hazmat cat A). MMSI: 220245000.

Date/timePositionNaut miles runAvg speedWind from/ knotsBaromVisibWave heightAir tempDewpointWater temp
2017-Oct-18 05:05N 31°26' E 032°22'2 6.7
2017-Oct-18 04:48N 31°26' E 032°20'1 3.9
2017-Oct-18 04:27N 31°25' E 032°19'  
2017-Oct-15 19:25N 36°16' E 015°07'819.4
2017-Oct-15 19:00N 36°18' E 014°57'1019.3
2017-Oct-15 18:30N 36°21' E 014°46'1019.5
2017-Oct-15 18:00N 36°24' E 014°34'1019.4
2017-Oct-15 17:30N 36°28' E 014°23'1019.4
2017-Oct-15 17:00N 36°30' E 014°12'1019.5
2017-Oct-15 16:30N 36°34' E 014°00'1019.4
2017-Oct-15 16:00N 36°37' E 013°49'1019.3
2017-Oct-15 15:30N 36°40' E 013°37'1019.3
2017-Oct-15 15:00N 36°43' E 013°26'1919.1
2017-Oct-15 14:00N 36°50' E 013°04'1019.0
2017-Oct-15 13:30N 36°54' E 012°53'1019.2
2017-Oct-15 13:00N 36°57' E 012°42'1019.1
2017-Oct-15 12:30N 37°00' E 012°30'918.8
2017-Oct-15 12:00N 37°02' E 012°19'918.8
2017-Oct-15 11:30N 37°05' E 012°08'918.8
2017-Oct-15 11:00N 37°08' E 011°57'918.8
2017-Oct-15 10:30N 37°11' E 011°45'918.5
2017-Oct-15 10:00N 37°15' E 011°34'918.6
2017-Oct-15 09:30N 37°18' E 011°24'1018.6
2017-Oct-15 09:00N 37°21' E 011°12'24418.3
2017-Oct-14 19:39N 37°11' E 006°06'7718.2
2017-Oct-14 15:24N 37°01' E 004°30'718.3
2017-Oct-14 15:00N 37°00' E 004°21'1418.5
2017-Oct-14 14:15N 36°59' E 004°03'719.1
2017-Oct-14 13:52N 36°58' E 003°54'818.9
2017-Oct-14 13:27N 36°57' E 003°44'818.6
2017-Oct-14 13:00N 36°56' E 003°34'918.7
2017-Oct-14 12:30N 36°54' E 003°22'1318.9
2017-Oct-14 11:49N 36°53' E 003°06'619.2
2017-Oct-14 11:30N 36°52' E 002°59'919.0
2017-Oct-14 11:00N 36°51' E 002°47'1019.2
2017-Oct-14 10:30N 36°50' E 002°35'1019.2
2017-Oct-14 10:00N 36°49' E 002°23'1019.2
2017-Oct-14 09:30N 36°48' E 002°11'1019.5
2017-Oct-14 09:00N 36°46' E 001°59'1019.4
2017-Oct-14 08:28N 36°45' E 001°46'919.1
2017-Oct-14 07:59N 36°44' E 001°35'1218.6
2017-Oct-14 07:22N 36°42' E 001°21'718.4
2017-Oct-14 07:00N 36°42' E 001°12'918.1
2017-Oct-14 06:30N 36°41' E 001°01'1018.6
2017-Oct-14 05:59N 36°39' E 000°49'1018.9
2017-Oct-14 05:29N 36°39' E 000°37'919.0
2017-Oct-14 05:00N 36°38' E 000°26'918.9
2017-Oct-14 04:30N 36°36' E 000°15'918.8
2017-Oct-14 04:00N 36°35' E 000°03'918.7
2017-Oct-14 03:30N 36°34' W 000°08'918.8
2017-Oct-14 03:00N 36°33' W 000°20'918.7
2017-Oct-14 02:30N 36°31' W 000°32'918.9
2017-Oct-14 02:00N 36°30' W 000°43'1018.9
2017-Oct-14 01:30N 36°29' W 000°55'918.8
2017-Oct-14 01:00N 36°28' W 001°07'918.8
2017-Oct-14 00:30N 36°27' W 001°18'919.0
2017-Oct-14 00:00N 36°25' W 001°30'1019.9
2017-Oct-13 23:30N 36°24' W 001°42'1020.0
2017-Oct-13 23:00N 36°23' W 001°54'16118.7
2017-Oct-13 14:26N 36°01' W 005°11'820.1
2017-Oct-13 14:00N 35°59' W 005°22'1619.6
2017-Oct-13 13:11N 35°54' W 005°41'818.3
2017-Oct-13 12:46N 35°53' W 005°50'5518.0
2017-Oct-13 09:42N 35°56' W 006°58'417.8
2017-Oct-13 09:29N 35°56' W 007°03'918.0
2017-Oct-13 09:00N 35°56' W 007°13'1318.2
2017-Oct-13 08:17N 35°56' W 007°30'518.0
2017-Oct-13 08:00N 35°56' W 007°36'918.0
2017-Oct-13 07:30N 35°56' W 007°47'917.5
2017-Oct-13 07:00N 35°57' W 007°58'1517.6
2017-Oct-13 06:08N 35°57' W 008°17'617.7
2017-Oct-13 05:48N 35°58' W 008°24'518.1
2017-Oct-13 05:30N 35°58' W 008°30'1117.8
2017-Oct-13 04:55N 36°02' W 008°43'818.2
2017-Oct-13 04:29N 36°04' W 008°52'918.3
2017-Oct-13 04:00N 36°08' W 009°02'918.2
2017-Oct-13 03:30N 36°12' W 009°12'1718.3
2017-Oct-13 02:35N 36°17' W 009°32'218.4
2017-Oct-13 02:28N 36°18' W 009°34'918.2
2017-Oct-13 02:00N 36°22' W 009°44'918.1
2017-Oct-13 01:29N 36°25' W 009°55'1418.3
2017-Oct-13 00:43N 36°30' W 010°11'32818.3
2017-Oct-12 06:46N 38°19' W 016°41'518.0
2017-Oct-12 06:30N 38°20' W 016°46'2517.9
2017-Oct-12 05:07N 38°27' W 017°17'217.8
2017-Oct-12 05:00N 38°28' W 017°19'1418.0
2017-Oct-12 04:12N 38°32' W 017°37'417.9
2017-Oct-12 04:00N 38°33' W 017°41'1417.9
2017-Oct-12 03:13N 38°37' W 017°59'418.0
2017-Oct-12 03:00N 38°38' W 018°03'3818.1
2017-Oct-12 00:56N 38°49' W 018°49'817.9
2017-Oct-12 00:29N 38°51' W 018°59'45217.4
2017-Oct-10 22:30N 40°31' W 028°32'  
Track history (hours):
 
Tides and Currents Weather Stations Pressure Air Temp Water Temp Dewpoint Dewpoint Depression Visibility Wind Speed Wind Dir Waves Ship Positions

Adrian Maersk

Last reported at 2017-Oct-18 05:05 UTC. Time now 2017-Oct-22 17:22 UTC.
Position N 31°26' E 032°22'.

Length 352 m; draft 13.2 m.

Type: Ship (hazmat cat A). MMSI: 220245000.

Date/timePositionNaut miles runAvg speedWind from/ knotsBaromVisibWave heightAir tempDewpointWater temp
2017-Oct-18 05:05N 31°26' E 032°22'2 6.7
2017-Oct-18 04:48N 31°26' E 032°20'1 3.9
2017-Oct-18 04:27N 31°25' E 032°19'  
2017-Oct-15 19:25N 36°16' E 015°07'819.4
2017-Oct-15 19:00N 36°18' E 014°57'1019.3
2017-Oct-15 18:30N 36°21' E 014°46'1019.5
2017-Oct-15 18:00N 36°24' E 014°34'1019.4
2017-Oct-15 17:30N 36°28' E 014°23'1019.4
2017-Oct-15 17:00N 36°30' E 014°12'1019.5
2017-Oct-15 16:30N 36°34' E 014°00'1019.4
2017-Oct-15 16:00N 36°37' E 013°49'1019.3
2017-Oct-15 15:30N 36°40' E 013°37'1019.3
2017-Oct-15 15:00N 36°43' E 013°26'1919.1
2017-Oct-15 14:00N 36°50' E 013°04'1019.0
2017-Oct-15 13:30N 36°54' E 012°53'1019.2
2017-Oct-15 13:00N 36°57' E 012°42'1019.1
2017-Oct-15 12:30N 37°00' E 012°30'918.8
2017-Oct-15 12:00N 37°02' E 012°19'918.8
2017-Oct-15 11:30N 37°05' E 012°08'918.8
2017-Oct-15 11:00N 37°08' E 011°57'918.8
2017-Oct-15 10:30N 37°11' E 011°45'918.5
2017-Oct-15 10:00N 37°15' E 011°34'918.6
2017-Oct-15 09:30N 37°18' E 011°24'1018.6
2017-Oct-15 09:00N 37°21' E 011°12'24418.3
2017-Oct-14 19:39N 37°11' E 006°06'7718.2
2017-Oct-14 15:24N 37°01' E 004°30'718.3
2017-Oct-14 15:00N 37°00' E 004°21'1418.5
2017-Oct-14 14:15N 36°59' E 004°03'719.1
2017-Oct-14 13:52N 36°58' E 003°54'818.9
2017-Oct-14 13:27N 36°57' E 003°44'818.6
2017-Oct-14 13:00N 36°56' E 003°34'918.7
2017-Oct-14 12:30N 36°54' E 003°22'1318.9
2017-Oct-14 11:49N 36°53' E 003°06'619.2
2017-Oct-14 11:30N 36°52' E 002°59'919.0
2017-Oct-14 11:00N 36°51' E 002°47'1019.2
2017-Oct-14 10:30N 36°50' E 002°35'1019.2
2017-Oct-14 10:00N 36°49' E 002°23'1019.2
2017-Oct-14 09:30N 36°48' E 002°11'1019.5
2017-Oct-14 09:00N 36°46' E 001°59'1019.4
2017-Oct-14 08:28N 36°45' E 001°46'919.1
2017-Oct-14 07:59N 36°44' E 001°35'1218.6
2017-Oct-14 07:22N 36°42' E 001°21'718.4
2017-Oct-14 07:00N 36°42' E 001°12'918.1
2017-Oct-14 06:30N 36°41' E 001°01'1018.6
2017-Oct-14 05:59N 36°39' E 000°49'1018.9
2017-Oct-14 05:29N 36°39' E 000°37'919.0
2017-Oct-14 05:00N 36°38' E 000°26'918.9
2017-Oct-14 04:30N 36°36' E 000°15'918.8
2017-Oct-14 04:00N 36°35' E 000°03'918.7
2017-Oct-14 03:30N 36°34' W 000°08'918.8
2017-Oct-14 03:00N 36°33' W 000°20'918.7
2017-Oct-14 02:30N 36°31' W 000°32'918.9
2017-Oct-14 02:00N 36°30' W 000°43'1018.9
2017-Oct-14 01:30N 36°29' W 000°55'918.8
2017-Oct-14 01:00N 36°28' W 001°07'918.8
2017-Oct-14 00:30N 36°27' W 001°18'919.0
2017-Oct-14 00:00N 36°25' W 001°30'1019.9
2017-Oct-13 23:30N 36°24' W 001°42'1020.0
2017-Oct-13 23:00N 36°23' W 001°54'16118.7
2017-Oct-13 14:26N 36°01' W 005°11'820.1
2017-Oct-13 14:00N 35°59' W 005°22'1619.6
2017-Oct-13 13:11N 35°54' W 005°41'818.3
2017-Oct-13 12:46N 35°53' W 005°50'5518.0
2017-Oct-13 09:42N 35°56' W 006°58'417.8
2017-Oct-13 09:29N 35°56' W 007°03'918.0
2017-Oct-13 09:00N 35°56' W 007°13'1318.2
2017-Oct-13 08:17N 35°56' W 007°30'518.0
2017-Oct-13 08:00N 35°56' W 007°36'918.0
2017-Oct-13 07:30N 35°56' W 007°47'917.5
2017-Oct-13 07:00N 35°57' W 007°58'1517.6
2017-Oct-13 06:08N 35°57' W 008°17'617.7
2017-Oct-13 05:48N 35°58' W 008°24'518.1
2017-Oct-13 05:30N 35°58' W 008°30'1117.8
2017-Oct-13 04:55N 36°02' W 008°43'818.2
2017-Oct-13 04:29N 36°04' W 008°52'918.3
2017-Oct-13 04:00N 36°08' W 009°02'918.2
2017-Oct-13 03:30N 36°12' W 009°12'1718.3
2017-Oct-13 02:35N 36°17' W 009°32'218.4
2017-Oct-13 02:28N 36°18' W 009°34'918.2
2017-Oct-13 02:00N 36°22' W 009°44'918.1
2017-Oct-13 01:29N 36°25' W 009°55'1418.3
2017-Oct-13 00:43N 36°30' W 010°11'32818.3
2017-Oct-12 06:46N 38°19' W 016°41'518.0
2017-Oct-12 06:30N 38°20' W 016°46'2517.9
2017-Oct-12 05:07N 38°27' W 017°17'217.8
2017-Oct-12 05:00N 38°28' W 017°19'1418.0
2017-Oct-12 04:12N 38°32' W 017°37'417.9
2017-Oct-12 04:00N 38°33' W 017°41'1417.9
2017-Oct-12 03:13N 38°37' W 017°59'418.0
2017-Oct-12 03:00N 38°38' W 018°03'3818.1
2017-Oct-12 00:56N 38°49' W 018°49'817.9
2017-Oct-12 00:29N 38°51' W 018°59'45217.4
2017-Oct-10 22:30N 40°31' W 028°32'  

Dump ship's entire track history